sensor_id;sensor_type;location;lat;lon;timestamp;P1;durP1;ratioP1;P2;durP2;ratioP2
9364;SDS011;4722;49.340;9.800;2022-11-20T00:00:55;10.95;;;5.00;;
9364;SDS011;4722;49.340;9.800;2022-11-20T00:03:21;14.57;;;5.82;;
9364;SDS011;4722;49.340;9.800;2022-11-20T00:05:47;11.18;;;5.55;;
9364;SDS011;4722;49.340;9.800;2022-11-20T00:08:13;11.85;;;4.90;;
9364;SDS011;4722;49.340;9.800;2022-11-20T00:10:39;11.82;;;5.20;;
9364;SDS011;4722;49.340;9.800;2022-11-20T00:13:06;11.02;;;5.82;;
9364;SDS011;4722;49.340;9.800;2022-11-20T00:15:32;11.82;;;5.20;;
9364;SDS011;4722;49.340;9.800;2022-11-20T00:17:58;12.25;;;5.43;;
9364;SDS011;4722;49.340;9.800;2022-11-20T00:20:24;12.20;;;5.22;;
9364;SDS011;4722;49.340;9.800;2022-11-20T00:22:50;12.45;;;4.90;;
9364;SDS011;4722;49.340;9.800;2022-11-20T00:25:16;13.50;;;6.28;;
9364;SDS011;4722;49.340;9.800;2022-11-20T00:27:42;10.05;;;5.38;;
9364;SDS011;4722;49.340;9.800;2022-11-20T00:30:08;14.23;;;5.50;;
9364;SDS011;4722;49.340;9.800;2022-11-20T00:32:35;14.52;;;5.72;;
9364;SDS011;4722;49.340;9.800;2022-11-20T00:35:00;11.15;;;5.43;;
9364;SDS011;4722;49.340;9.800;2022-11-20T00:37:26;13.60;;;5.80;;
9364;SDS011;4722;49.340;9.800;2022-11-20T00:39:52;13.35;;;6.18;;
9364;SDS011;4722;49.340;9.800;2022-11-20T00:42:18;11.57;;;5.35;;
9364;SDS011;4722;49.340;9.800;2022-11-20T00:44:44;12.13;;;5.43;;
9364;SDS011;4722;49.340;9.800;2022-11-20T00:47:10;13.02;;;4.13;;
9364;SDS011;4722;49.340;9.800;2022-11-20T00:49:36;11.43;;;5.70;;
9364;SDS011;4722;49.340;9.800;2022-11-20T00:52:02;11.57;;;5.32;;
9364;SDS011;4722;49.340;9.800;2022-11-20T00:54:28;20.27;;;7.60;;
9364;SDS011;4722;49.340;9.800;2022-11-20T00:56:54;15.27;;;6.82;;
9364;SDS011;4722;49.340;9.800;2022-11-20T00:59:20;12.95;;;6.80;;
9364;SDS011;4722;49.340;9.800;2022-11-20T01:01:46;12.05;;;4.72;;
9364;SDS011;4722;49.340;9.800;2022-11-20T01:04:12;13.88;;;7.50;;
9364;SDS011;4722;49.340;9.800;2022-11-20T01:06:38;11.65;;;5.72;;
9364;SDS011;4722;49.340;9.800;2022-11-20T01:09:05;14.07;;;6.57;;
9364;SDS011;4722;49.340;9.800;2022-11-20T01:11:33;11.18;;;5.72;;
9364;SDS011;4722;49.340;9.800;2022-11-20T01:14:00;14.20;;;5.65;;
9364;SDS011;4722;49.340;9.800;2022-11-20T01:16:36;11.73;;;3.85;;
9364;SDS011;4722;49.340;9.800;2022-11-20T01:19:03;12.73;;;5.25;;
9364;SDS011;4722;49.340;9.800;2022-11-20T01:21:31;12.20;;;4.80;;
9364;SDS011;4722;49.340;9.800;2022-11-20T01:23:59;9.02;;;4.47;;
9364;SDS011;4722;49.340;9.800;2022-11-20T01:26:26;15.93;;;6.10;;
9364;SDS011;4722;49.340;9.800;2022-11-20T01:28:53;11.57;;;5.50;;
9364;SDS011;4722;49.340;9.800;2022-11-20T01:31:20;11.52;;;6.22;;
9364;SDS011;4722;49.340;9.800;2022-11-20T01:33:47;11.77;;;5.32;;
9364;SDS011;4722;49.340;9.800;2022-11-20T01:36:14;12.35;;;6.40;;
9364;SDS011;4722;49.340;9.800;2022-11-20T01:38:40;13.90;;;5.88;;
9364;SDS011;4722;49.340;9.800;2022-11-20T01:41:07;10.90;;;5.20;;
9364;SDS011;4722;49.340;9.800;2022-11-20T01:43:33;10.38;;;4.07;;
9364;SDS011;4722;49.340;9.800;2022-11-20T01:46:04;6.68;;;3.22;;
9364;SDS011;4722;49.340;9.800;2022-11-20T01:48:38;9.52;;;5.05;;
9364;SDS011;4722;49.340;9.800;2022-11-20T01:51:17;8.18;;;4.13;;
9364;SDS011;4722;49.340;9.800;2022-11-20T01:54:07;10.07;;;4.35;;
9364;SDS011;4722;49.340;9.800;2022-11-20T01:56:36;9.18;;;4.30;;
9364;SDS011;4722;49.340;9.800;2022-11-20T01:59:03;10.75;;;4.97;;
9364;SDS011;4722;49.340;9.800;2022-11-20T02:01:30;8.88;;;3.60;;
9364;SDS011;4722;49.340;9.800;2022-11-20T02:03:56;9.90;;;5.07;;
9364;SDS011;4722;49.340;9.800;2022-11-20T02:06:23;10.05;;;4.15;;
9364;SDS011;4722;49.340;9.800;2022-11-20T02:08:50;13.77;;;4.70;;
9364;SDS011;4722;49.340;9.800;2022-11-20T02:11:16;11.52;;;4.70;;
9364;SDS011;4722;49.340;9.800;2022-11-20T02:13:42;8.18;;;3.25;;
9364;SDS011;4722;49.340;9.800;2022-11-20T02:16:13;8.77;;;4.00;;
9364;SDS011;4722;49.340;9.800;2022-11-20T02:18:39;8.82;;;3.50;;
9364;SDS011;4722;49.340;9.800;2022-11-20T02:21:09;13.43;;;6.05;;
9364;SDS011;4722;49.340;9.800;2022-11-20T02:23:55;7.85;;;3.33;;
9364;SDS011;4722;49.340;9.800;2022-11-20T02:26:22;9.40;;;3.83;;
9364;SDS011;4722;49.340;9.800;2022-11-20T02:28:49;8.80;;;3.83;;
9364;SDS011;4722;49.340;9.800;2022-11-20T02:31:15;8.43;;;4.47;;
9364;SDS011;4722;49.340;9.800;2022-11-20T02:33:41;10.93;;;5.55;;
9364;SDS011;4722;49.340;9.800;2022-11-20T02:36:08;14.25;;;5.68;;
9364;SDS011;4722;49.340;9.800;2022-11-20T02:38:37;8.00;;;4.75;;
9364;SDS011;4722;49.340;9.800;2022-11-20T02:41:03;10.02;;;5.10;;
9364;SDS011;4722;49.340;9.800;2022-11-20T02:43:29;15.13;;;6.40;;
9364;SDS011;4722;49.340;9.800;2022-11-20T02:45:55;11.40;;;5.95;;
9364;SDS011;4722;49.340;9.800;2022-11-20T02:48:21;9.43;;;4.88;;
9364;SDS011;4722;49.340;9.800;2022-11-20T02:50:46;10.25;;;4.93;;
9364;SDS011;4722;49.340;9.800;2022-11-20T02:53:12;7.03;;;3.15;;
9364;SDS011;4722;49.340;9.800;2022-11-20T02:55:38;11.27;;;5.97;;
9364;SDS011;4722;49.340;9.800;2022-11-20T02:58:04;8.20;;;4.03;;
9364;SDS011;4722;49.340;9.800;2022-11-20T03:00:30;8.57;;;3.97;;
9364;SDS011;4722;49.340;9.800;2022-11-20T03:02:57;12.40;;;4.32;;
9364;SDS011;4722;49.340;9.800;2022-11-20T03:05:23;9.15;;;4.10;;
9364;SDS011;4722;49.340;9.800;2022-11-20T03:07:48;11.52;;;4.63;;
9364;SDS011;4722;49.340;9.800;2022-11-20T03:10:14;8.82;;;4.05;;
9364;SDS011;4722;49.340;9.800;2022-11-20T03:12:41;10.57;;;4.00;;
9364;SDS011;4722;49.340;9.800;2022-11-20T03:15:07;11.13;;;5.15;;
9364;SDS011;4722;49.340;9.800;2022-11-20T03:17:33;10.60;;;4.68;;
9364;SDS011;4722;49.340;9.800;2022-11-20T03:19:59;9.55;;;4.15;;
9364;SDS011;4722;49.340;9.800;2022-11-20T03:22:25;12.23;;;5.70;;
9364;SDS011;4722;49.340;9.800;2022-11-20T03:24:54;8.82;;;3.92;;
9364;SDS011;4722;49.340;9.800;2022-11-20T03:27:20;8.23;;;4.82;;
9364;SDS011;4722;49.340;9.800;2022-11-20T03:29:46;11.25;;;5.47;;
9364;SDS011;4722;49.340;9.800;2022-11-20T03:32:12;13.07;;;5.95;;
9364;SDS011;4722;49.340;9.800;2022-11-20T03:34:38;10.00;;;4.55;;
9364;SDS011;4722;49.340;9.800;2022-11-20T03:37:03;10.48;;;4.25;;
9364;SDS011;4722;49.340;9.800;2022-11-20T03:39:29;12.27;;;5.55;;
9364;SDS011;4722;49.340;9.800;2022-11-20T03:41:55;13.50;;;5.47;;
9364;SDS011;4722;49.340;9.800;2022-11-20T03:44:21;11.15;;;5.25;;
9364;SDS011;4722;49.340;9.800;2022-11-20T03:46:47;8.60;;;4.00;;
9364;SDS011;4722;49.340;9.800;2022-11-20T03:49:13;13.25;;;5.75;;
9364;SDS011;4722;49.340;9.800;2022-11-20T03:51:39;12.45;;;5.88;;
9364;SDS011;4722;49.340;9.800;2022-11-20T03:54:06;8.73;;;3.63;;
9364;SDS011;4722;49.340;9.800;2022-11-20T03:56:34;15.20;;;6.32;;
9364;SDS011;4722;49.340;9.800;2022-11-20T03:59:01;12.07;;;5.22;;
9364;SDS011;4722;49.340;9.800;2022-11-20T04:01:29;14.80;;;5.45;;
9364;SDS011;4722;49.340;9.800;2022-11-20T04:03:56;13.25;;;6.15;;
9364;SDS011;4722;49.340;9.800;2022-11-20T04:06:23;13.65;;;5.70;;
9364;SDS011;4722;49.340;9.800;2022-11-20T04:08:49;13.73;;;5.55;;
9364;SDS011;4722;49.340;9.800;2022-11-20T04:11:16;12.60;;;5.18;;
9364;SDS011;4722;49.340;9.800;2022-11-20T04:13:45;10.10;;;4.95;;
9364;SDS011;4722;49.340;9.800;2022-11-20T04:16:12;17.88;;;5.20;;
9364;SDS011;4722;49.340;9.800;2022-11-20T04:18:39;17.88;;;5.85;;
9364;SDS011;4722;49.340;9.800;2022-11-20T04:21:05;11.02;;;5.07;;
9364;SDS011;4722;49.340;9.800;2022-11-20T04:23:31;14.68;;;6.43;;
9364;SDS011;4722;49.340;9.800;2022-11-20T04:26:07;23.25;;;6.22;;
9364;SDS011;4722;49.340;9.800;2022-11-20T04:28:34;15.25;;;5.55;;
9364;SDS011;4722;49.340;9.800;2022-11-20T04:31:07;17.92;;;5.72;;
9364;SDS011;4722;49.340;9.800;2022-11-20T04:33:34;13.00;;;6.30;;
9364;SDS011;4722;49.340;9.800;2022-11-20T04:36:04;16.40;;;5.90;;
9364;SDS011;4722;49.340;9.800;2022-11-20T04:38:30;13.93;;;5.90;;
9364;SDS011;4722;49.340;9.800;2022-11-20T04:40:57;15.57;;;5.57;;
9364;SDS011;4722;49.340;9.800;2022-11-20T04:43:23;15.30;;;6.22;;
9364;SDS011;4722;49.340;9.800;2022-11-20T04:45:53;17.23;;;6.65;;
9364;SDS011;4722;49.340;9.800;2022-11-20T04:48:19;13.88;;;5.32;;
9364;SDS011;4722;49.340;9.800;2022-11-20T04:50:45;12.95;;;6.50;;
9364;SDS011;4722;49.340;9.800;2022-11-20T04:53:11;15.15;;;5.28;;
9364;SDS011;4722;49.340;9.800;2022-11-20T04:55:37;9.15;;;4.65;;
9364;SDS011;4722;49.340;9.800;2022-11-20T04:58:03;15.95;;;5.72;;
9364;SDS011;4722;49.340;9.800;2022-11-20T05:00:29;12.15;;;5.38;;
9364;SDS011;4722;49.340;9.800;2022-11-20T05:02:55;8.60;;;4.35;;
9364;SDS011;4722;49.340;9.800;2022-11-20T05:05:21;14.02;;;5.80;;
9364;SDS011;4722;49.340;9.800;2022-11-20T05:07:47;9.05;;;4.03;;
9364;SDS011;4722;49.340;9.800;2022-11-20T05:10:13;9.48;;;4.82;;
9364;SDS011;4722;49.340;9.800;2022-11-20T05:12:39;17.80;;;5.38;;
9364;SDS011;4722;49.340;9.800;2022-11-20T05:15:05;16.85;;;5.82;;
9364;SDS011;4722;49.340;9.800;2022-11-20T05:17:31;10.60;;;3.83;;
9364;SDS011;4722;49.340;9.800;2022-11-20T05:19:57;9.00;;;5.53;;
9364;SDS011;4722;49.340;9.800;2022-11-20T05:22:23;9.75;;;5.30;;
9364;SDS011;4722;49.340;9.800;2022-11-20T05:24:49;12.13;;;5.35;;
9364;SDS011;4722;49.340;9.800;2022-11-20T05:27:15;9.63;;;4.18;;
9364;SDS011;4722;49.340;9.800;2022-11-20T05:29:41;9.90;;;5.78;;
9364;SDS011;4722;49.340;9.800;2022-11-20T05:32:06;9.52;;;4.85;;
9364;SDS011;4722;49.340;9.800;2022-11-20T05:34:34;11.02;;;4.65;;
9364;SDS011;4722;49.340;9.800;2022-11-20T05:37:00;13.73;;;6.25;;
9364;SDS011;4722;49.340;9.800;2022-11-20T05:39:27;9.90;;;4.85;;
9364;SDS011;4722;49.340;9.800;2022-11-20T05:41:53;9.40;;;4.90;;
9364;SDS011;4722;49.340;9.800;2022-11-20T05:45:02;11.00;;;4.40;;
9364;SDS011;4722;49.340;9.800;2022-11-20T05:47:31;7.43;;;4.53;;
9364;SDS011;4722;49.340;9.800;2022-11-20T05:49:57;10.35;;;4.50;;
9364;SDS011;4722;49.340;9.800;2022-11-20T05:52:23;7.65;;;3.88;;
9364;SDS011;4722;49.340;9.800;2022-11-20T05:54:49;7.57;;;4.25;;
9364;SDS011;4722;49.340;9.800;2022-11-20T05:57:15;9.77;;;3.85;;
9364;SDS011;4722;49.340;9.800;2022-11-20T05:59:41;5.75;;;3.28;;
9364;SDS011;4722;49.340;9.800;2022-11-20T06:02:07;8.05;;;3.88;;
9364;SDS011;4722;49.340;9.800;2022-11-20T06:04:33;7.57;;;3.63;;
9364;SDS011;4722;49.340;9.800;2022-11-20T06:06:59;8.18;;;3.17;;
9364;SDS011;4722;49.340;9.800;2022-11-20T06:09:25;7.63;;;3.67;;
9364;SDS011;4722;49.340;9.800;2022-11-20T06:11:51;5.63;;;2.92;;
9364;SDS011;4722;49.340;9.800;2022-11-20T06:14:17;7.38;;;3.90;;
9364;SDS011;4722;49.340;9.800;2022-11-20T06:16:43;5.88;;;2.80;;
9364;SDS011;4722;49.340;9.800;2022-11-20T06:19:09;6.40;;;3.75;;
9364;SDS011;4722;49.340;9.800;2022-11-20T06:21:35;6.85;;;2.60;;
9364;SDS011;4722;49.340;9.800;2022-11-20T06:24:01;5.38;;;2.92;;
9364;SDS011;4722;49.340;9.800;2022-11-20T06:26:27;6.75;;;3.60;;
9364;SDS011;4722;49.340;9.800;2022-11-20T06:28:53;4.97;;;2.53;;
9364;SDS011;4722;49.340;9.800;2022-11-20T06:31:21;5.03;;;2.65;;
9364;SDS011;4722;49.340;9.800;2022-11-20T06:33:47;8.00;;;4.03;;
9364;SDS011;4722;49.340;9.800;2022-11-20T06:36:15;7.15;;;3.97;;
9364;SDS011;4722;49.340;9.800;2022-11-20T06:38:41;5.80;;;2.78;;
9364;SDS011;4722;49.340;9.800;2022-11-20T06:41:12;5.40;;;2.95;;
9364;SDS011;4722;49.340;9.800;2022-11-20T06:43:38;3.88;;;1.63;;
9364;SDS011;4722;49.340;9.800;2022-11-20T06:46:04;4.68;;;2.40;;
9364;SDS011;4722;49.340;9.800;2022-11-20T06:48:30;4.45;;;1.85;;
9364;SDS011;4722;49.340;9.800;2022-11-20T06:50:56;4.95;;;2.33;;
9364;SDS011;4722;49.340;9.800;2022-11-20T06:53:22;6.22;;;2.20;;
9364;SDS011;4722;49.340;9.800;2022-11-20T06:55:49;3.15;;;2.00;;
9364;SDS011;4722;49.340;9.800;2022-11-20T06:58:15;6.95;;;2.03;;
9364;SDS011;4722;49.340;9.800;2022-11-20T07:00:41;5.45;;;2.22;;
9364;SDS011;4722;49.340;9.800;2022-11-20T07:03:08;2.53;;;1.52;;
9364;SDS011;4722;49.340;9.800;2022-11-20T07:05:35;3.47;;;1.88;;
9364;SDS011;4722;49.340;9.800;2022-11-20T07:08:01;5.65;;;2.40;;
9364;SDS011;4722;49.340;9.800;2022-11-20T07:10:27;9.90;;;4.15;;
9364;SDS011;4722;49.340;9.800;2022-11-20T07:12:54;3.25;;;2.13;;
9364;SDS011;4722;49.340;9.800;2022-11-20T07:15:20;5.85;;;2.33;;
9364;SDS011;4722;49.340;9.800;2022-11-20T07:17:47;5.13;;;1.85;;
9364;SDS011;4722;49.340;9.800;2022-11-20T07:20:13;2.97;;;1.80;;
9364;SDS011;4722;49.340;9.800;2022-11-20T07:22:39;5.50;;;1.77;;
9364;SDS011;4722;49.340;9.800;2022-11-20T07:25:06;4.40;;;2.47;;
9364;SDS011;4722;49.340;9.800;2022-11-20T07:27:32;3.38;;;1.60;;
9364;SDS011;4722;49.340;9.800;2022-11-20T07:29:58;2.55;;;1.60;;
9364;SDS011;4722;49.340;9.800;2022-11-20T07:32:24;3.00;;;1.35;;
9364;SDS011;4722;49.340;9.800;2022-11-20T07:34:50;2.90;;;1.13;;
9364;SDS011;4722;49.340;9.800;2022-11-20T07:37:16;3.03;;;1.30;;
9364;SDS011;4722;49.340;9.800;2022-11-20T07:39:42;2.90;;;1.13;;
9364;SDS011;4722;49.340;9.800;2022-11-20T07:42:08;3.47;;;1.58;;
9364;SDS011;4722;49.340;9.800;2022-11-20T07:44:34;2.38;;;1.15;;
9364;SDS011;4722;49.340;9.800;2022-11-20T07:47:00;3.83;;;1.80;;
9364;SDS011;4722;49.340;9.800;2022-11-20T07:49:27;2.20;;;1.17;;
9364;SDS011;4722;49.340;9.800;2022-11-20T07:51:53;2.28;;;1.58;;
9364;SDS011;4722;49.340;9.800;2022-11-20T07:54:19;3.95;;;1.77;;
9364;SDS011;4722;49.340;9.800;2022-11-20T07:56:45;2.35;;;1.30;;
9364;SDS011;4722;49.340;9.800;2022-11-20T07:59:12;3.13;;;1.60;;
9364;SDS011;4722;49.340;9.800;2022-11-20T08:01:41;3.60;;;1.42;;
9364;SDS011;4722;49.340;9.800;2022-11-20T08:04:07;6.63;;;2.30;;
9364;SDS011;4722;49.340;9.800;2022-11-20T08:06:34;5.72;;;2.15;;
9364;SDS011;4722;49.340;9.800;2022-11-20T08:09:00;8.65;;;2.53;;
9364;SDS011;4722;49.340;9.800;2022-11-20T08:11:26;5.30;;;3.03;;
9364;SDS011;4722;49.340;9.800;2022-11-20T08:14:10;6.32;;;2.42;;
9364;SDS011;4722;49.340;9.800;2022-11-20T08:16:37;4.40;;;2.15;;
9364;SDS011;4722;49.340;9.800;2022-11-20T08:19:03;3.75;;;2.22;;
9364;SDS011;4722;49.340;9.800;2022-11-20T08:21:29;3.83;;;1.75;;
9364;SDS011;4722;49.340;9.800;2022-11-20T08:23:56;2.95;;;1.92;;
9364;SDS011;4722;49.340;9.800;2022-11-20T08:26:22;7.47;;;3.33;;
9364;SDS011;4722;49.340;9.800;2022-11-20T08:28:48;3.65;;;2.20;;
9364;SDS011;4722;49.340;9.800;2022-11-20T08:31:14;4.45;;;2.33;;
9364;SDS011;4722;49.340;9.800;2022-11-20T08:33:40;5.47;;;3.20;;
9364;SDS011;4722;49.340;9.800;2022-11-20T08:36:06;4.72;;;2.55;;
9364;SDS011;4722;49.340;9.800;2022-11-20T08:38:32;4.20;;;2.03;;
9364;SDS011;4722;49.340;9.800;2022-11-20T08:40:59;10.27;;;2.90;;
9364;SDS011;4722;49.340;9.800;2022-11-20T08:43:44;6.55;;;3.25;;
9364;SDS011;4722;49.340;9.800;2022-11-20T08:46:10;4.13;;;2.15;;
9364;SDS011;4722;49.340;9.800;2022-11-20T08:48:36;4.95;;;2.60;;
9364;SDS011;4722;49.340;9.800;2022-11-20T08:51:02;4.80;;;2.75;;
9364;SDS011;4722;49.340;9.800;2022-11-20T08:53:28;3.55;;;2.20;;
9364;SDS011;4722;49.340;9.800;2022-11-20T08:55:54;6.00;;;2.38;;
9364;SDS011;4722;49.340;9.800;2022-11-20T08:58:20;4.55;;;2.22;;
9364;SDS011;4722;49.340;9.800;2022-11-20T09:00:47;3.47;;;1.92;;
9364;SDS011;4722;49.340;9.800;2022-11-20T09:03:12;4.32;;;1.90;;
9364;SDS011;4722;49.340;9.800;2022-11-20T09:05:38;6.47;;;2.35;;
9364;SDS011;4722;49.340;9.800;2022-11-20T09:08:04;4.15;;;2.25;;
9364;SDS011;4722;49.340;9.800;2022-11-20T09:10:30;3.38;;;1.77;;
9364;SDS011;4722;49.340;9.800;2022-11-20T09:12:58;3.85;;;1.88;;
9364;SDS011;4722;49.340;9.800;2022-11-20T09:15:24;4.20;;;1.92;;
9364;SDS011;4722;49.340;9.800;2022-11-20T09:17:54;9.32;;;3.22;;
9364;SDS011;4722;49.340;9.800;2022-11-20T09:20:20;4.57;;;2.58;;
9364;SDS011;4722;49.340;9.800;2022-11-20T09:22:46;5.60;;;2.47;;
9364;SDS011;4722;49.340;9.800;2022-11-20T09:25:12;3.95;;;2.17;;
9364;SDS011;4722;49.340;9.800;2022-11-20T09:27:38;7.28;;;2.00;;
9364;SDS011;4722;49.340;9.800;2022-11-20T09:30:06;5.40;;;2.10;;
9364;SDS011;4722;49.340;9.800;2022-11-20T09:32:32;5.50;;;2.80;;
9364;SDS011;4722;49.340;9.800;2022-11-20T09:34:58;3.97;;;2.17;;
9364;SDS011;4722;49.340;9.800;2022-11-20T09:37:24;2.47;;;1.75;;
9364;SDS011;4722;49.340;9.800;2022-11-20T09:39:50;69.35;;;24.33;;
9364;SDS011;4722;49.340;9.800;2022-11-20T09:42:19;13.18;;;6.28;;
9364;SDS011;4722;49.340;9.800;2022-11-20T09:50:05;6.93;;;3.40;;
9364;SDS011;4722;49.340;9.800;2022-11-20T09:52:37;4.95;;;2.75;;
9364;SDS011;4722;49.340;9.800;2022-11-20T09:55:10;5.45;;;2.58;;
9364;SDS011;4722;49.340;9.800;2022-11-20T09:57:38;13.20;;;5.35;;
9364;SDS011;4722;49.340;9.800;2022-11-20T10:00:05;12.90;;;4.55;;
9364;SDS011;4722;49.340;9.800;2022-11-20T10:02:36;6.63;;;4.13;;
9364;SDS011;4722;49.340;9.800;2022-11-20T10:10:14;6.00;;;3.42;;
9364;SDS011;4722;49.340;9.800;2022-11-20T10:15:25;4.93;;;2.10;;
9364;SDS011;4722;49.340;9.800;2022-11-20T10:18:01;3.03;;;1.85;;
9364;SDS011;4722;49.340;9.800;2022-11-20T10:20:40;3.80;;;1.48;;
9364;SDS011;4722;49.340;9.800;2022-11-20T10:26:02;1.85;;;1.38;;
9364;SDS011;4722;49.340;9.800;2022-11-20T10:28:32;5.03;;;1.67;;
9364;SDS011;4722;49.340;9.800;2022-11-20T10:31:02;2.63;;;1.63;;
9364;SDS011;4722;49.340;9.800;2022-11-20T10:33:32;2.72;;;1.75;;
9364;SDS011;4722;49.340;9.800;2022-11-20T10:36:16;4.43;;;2.08;;
9364;SDS011;4722;49.340;9.800;2022-11-20T10:38:46;6.03;;;1.90;;
9364;SDS011;4722;49.340;9.800;2022-11-20T10:41:20;3.25;;;2.15;;
9364;SDS011;4722;49.340;9.800;2022-11-20T10:43:52;4.18;;;2.13;;
9364;SDS011;4722;49.340;9.800;2022-11-20T10:46:20;2.38;;;1.40;;
9364;SDS011;4722;49.340;9.800;2022-11-20T10:48:47;2.78;;;1.38;;
9364;SDS011;4722;49.340;9.800;2022-11-20T10:54:05;4.55;;;2.10;;
9364;SDS011;4722;49.340;9.800;2022-11-20T10:56:35;3.92;;;2.50;;
9364;SDS011;4722;49.340;9.800;2022-11-20T10:59:35;4.60;;;2.33;;
9364;SDS011;4722;49.340;9.800;2022-11-20T11:02:20;79.30;;;22.85;;
9364;SDS011;4722;49.340;9.800;2022-11-20T11:04:55;40.67;;;14.35;;
9364;SDS011;4722;49.340;9.800;2022-11-20T11:07:23;15.30;;;5.93;;
9364;SDS011;4722;49.340;9.800;2022-11-20T11:09:52;3.88;;;2.45;;
9364;SDS011;4722;49.340;9.800;2022-11-20T11:12:19;3.53;;;1.98;;
9364;SDS011;4722;49.340;9.800;2022-11-20T11:14:49;5.05;;;2.95;;
9364;SDS011;4722;49.340;9.800;2022-11-20T11:20:14;8.02;;;5.00;;
9364;SDS011;4722;49.340;9.800;2022-11-20T11:22:53;12.00;;;6.35;;
9364;SDS011;4722;49.340;9.800;2022-11-20T11:27:49;18.40;;;9.75;;
9364;SDS011;4722;49.340;9.800;2022-11-20T11:30:16;13.57;;;7.30;;
9364;SDS011;4722;49.340;9.800;2022-11-20T11:32:43;11.77;;;6.63;;
9364;SDS011;4722;49.340;9.800;2022-11-20T11:35:20;12.68;;;6.55;;
9364;SDS011;4722;49.340;9.800;2022-11-20T11:37:46;10.07;;;4.68;;
9364;SDS011;4722;49.340;9.800;2022-11-20T11:40:13;5.88;;;4.05;;
9364;SDS011;4722;49.340;9.800;2022-11-20T11:42:43;5.25;;;3.03;;
9364;SDS011;4722;49.340;9.800;2022-11-20T11:45:14;6.72;;;3.97;;
9364;SDS011;4722;49.340;9.800;2022-11-20T11:52:45;2.22;;;1.80;;
9364;SDS011;4722;49.340;9.800;2022-11-20T11:55:17;3.90;;;2.28;;
9364;SDS011;4722;49.340;9.800;2022-11-20T12:00:26;4.85;;;2.47;;
9364;SDS011;4722;49.340;9.800;2022-11-20T12:12:54;2.85;;;2.00;;
9364;SDS011;4722;49.340;9.800;2022-11-20T12:15:25;3.60;;;1.63;;
9364;SDS011;4722;49.340;9.800;2022-11-20T12:17:51;2.13;;;1.50;;
9364;SDS011;4722;49.340;9.800;2022-11-20T12:20:17;4.07;;;1.50;;
9364;SDS011;4722;49.340;9.800;2022-11-20T12:25:42;4.32;;;1.98;;
9364;SDS011;4722;49.340;9.800;2022-11-20T12:28:13;3.83;;;1.75;;
9364;SDS011;4722;49.340;9.800;2022-11-20T12:34:17;2.55;;;1.67;;
9364;SDS011;4722;49.340;9.800;2022-11-20T12:36:54;4.45;;;1.98;;
9364;SDS011;4722;49.340;9.800;2022-11-20T12:39:34;1.40;;;0.77;;
9364;SDS011;4722;49.340;9.800;2022-11-20T12:45:10;5.30;;;2.80;;
9364;SDS011;4722;49.340;9.800;2022-11-20T12:53:11;5.75;;;3.13;;
9364;SDS011;4722;49.340;9.800;2022-11-20T12:55:47;4.25;;;2.65;;
9364;SDS011;4722;49.340;9.800;2022-11-20T13:01:03;3.80;;;2.15;;
9364;SDS011;4722;49.340;9.800;2022-11-20T13:03:41;4.53;;;2.20;;
9364;SDS011;4722;49.340;9.800;2022-11-20T13:06:10;2.45;;;1.65;;
9364;SDS011;4722;49.340;9.800;2022-11-20T13:08:41;4.80;;;2.65;;
9364;SDS011;4722;49.340;9.800;2022-11-20T13:11:13;3.22;;;1.70;;
9364;SDS011;4722;49.340;9.800;2022-11-20T13:14:04;2.95;;;1.80;;
9364;SDS011;4722;49.340;9.800;2022-11-20T13:16:58;2.88;;;1.70;;
9364;SDS011;4722;49.340;9.800;2022-11-20T13:19:24;2.15;;;1.30;;
9364;SDS011;4722;49.340;9.800;2022-11-20T13:21:51;1.48;;;0.60;;
9364;SDS011;4722;49.340;9.800;2022-11-20T13:24:21;1.45;;;0.50;;
9364;SDS011;4722;49.340;9.800;2022-11-20T13:26:48;1.30;;;0.68;;
9364;SDS011;4722;49.340;9.800;2022-11-20T13:29:25;2.25;;;1.02;;
9364;SDS011;4722;49.340;9.800;2022-11-20T13:31:51;2.83;;;1.58;;
9364;SDS011;4722;49.340;9.800;2022-11-20T13:34:31;5.57;;;2.10;;
9364;SDS011;4722;49.340;9.800;2022-11-20T13:36:57;9.98;;;2.33;;
9364;SDS011;4722;49.340;9.800;2022-11-20T13:39:29;6.57;;;1.55;;
9364;SDS011;4722;49.340;9.800;2022-11-20T13:41:58;4.32;;;2.42;;
9364;SDS011;4722;49.340;9.800;2022-11-20T13:44:35;9.15;;;3.58;;
9364;SDS011;4722;49.340;9.800;2022-11-20T13:47:03;8.85;;;4.13;;
9364;SDS011;4722;49.340;9.800;2022-11-20T13:49:30;3.53;;;2.33;;
9364;SDS011;4722;49.340;9.800;2022-11-20T13:52:15;5.95;;;2.00;;
9364;SDS011;4722;49.340;9.800;2022-11-20T13:54:45;13.13;;;4.45;;
9364;SDS011;4722;49.340;9.800;2022-11-20T14:00:21;3.25;;;2.40;;
9364;SDS011;4722;49.340;9.800;2022-11-20T14:05:46;3.72;;;1.75;;
9364;SDS011;4722;49.340;9.800;2022-11-20T14:08:27;5.50;;;2.40;;
9364;SDS011;4722;49.340;9.800;2022-11-20T14:13:50;2.50;;;1.85;;
9364;SDS011;4722;49.340;9.800;2022-11-20T14:16:19;4.47;;;1.50;;
9364;SDS011;4722;49.340;9.800;2022-11-20T14:18:45;2.42;;;1.10;;
9364;SDS011;4722;49.340;9.800;2022-11-20T14:21:11;4.88;;;2.28;;
9364;SDS011;4722;49.340;9.800;2022-11-20T14:23:37;4.45;;;1.90;;
9364;SDS011;4722;49.340;9.800;2022-11-20T14:26:03;8.65;;;3.05;;
9364;SDS011;4722;49.340;9.800;2022-11-20T14:28:30;2.55;;;1.60;;
9364;SDS011;4722;49.340;9.800;2022-11-20T14:30:57;1.42;;;0.98;;
9364;SDS011;4722;49.340;9.800;2022-11-20T14:33:23;4.68;;;2.05;;
9364;SDS011;4722;49.340;9.800;2022-11-20T14:35:51;1.90;;;1.17;;
9364;SDS011;4722;49.340;9.800;2022-11-20T14:38:19;3.58;;;1.13;;
9364;SDS011;4722;49.340;9.800;2022-11-20T14:40:47;1.33;;;1.00;;
9364;SDS011;4722;49.340;9.800;2022-11-20T14:43:21;3.38;;;1.70;;
9364;SDS011;4722;49.340;9.800;2022-11-20T14:46:02;2.00;;;1.30;;
9364;SDS011;4722;49.340;9.800;2022-11-20T14:48:33;2.00;;;1.25;;
9364;SDS011;4722;49.340;9.800;2022-11-20T14:50:59;2.03;;;0.93;;
9364;SDS011;4722;49.340;9.800;2022-11-20T14:53:25;7.00;;;2.17;;
9364;SDS011;4722;49.340;9.800;2022-11-20T14:55:58;3.08;;;1.33;;
9364;SDS011;4722;49.340;9.800;2022-11-20T14:58:25;6.50;;;1.02;;
9364;SDS011;4722;49.340;9.800;2022-11-20T15:03:30;5.03;;;1.27;;
9364;SDS011;4722;49.340;9.800;2022-11-20T15:05:56;2.60;;;1.83;;
9364;SDS011;4722;49.340;9.800;2022-11-20T15:08:22;1.75;;;0.75;;
9364;SDS011;4722;49.340;9.800;2022-11-20T15:10:48;2.35;;;1.40;;
9364;SDS011;4722;49.340;9.800;2022-11-20T15:13:17;6.88;;;0.80;;
9364;SDS011;4722;49.340;9.800;2022-11-20T15:15:47;1.08;;;0.70;;
9364;SDS011;4722;49.340;9.800;2022-11-20T15:18:17;1.83;;;1.23;;
9364;SDS011;4722;49.340;9.800;2022-11-20T15:20:44;1.15;;;0.82;;
9364;SDS011;4722;49.340;9.800;2022-11-20T15:23:17;0.98;;;0.57;;
9364;SDS011;4722;49.340;9.800;2022-11-20T15:25:44;1.95;;;0.70;;
9364;SDS011;4722;49.340;9.800;2022-11-20T15:28:16;2.25;;;1.17;;
9364;SDS011;4722;49.340;9.800;2022-11-20T15:30:43;1.45;;;0.70;;
9364;SDS011;4722;49.340;9.800;2022-11-20T15:33:09;2.53;;;0.77;;
9364;SDS011;4722;49.340;9.800;2022-11-20T15:35:35;1.02;;;0.55;;
9364;SDS011;4722;49.340;9.800;2022-11-20T15:38:01;4.97;;;0.57;;
9364;SDS011;4722;49.340;9.800;2022-11-20T15:40:27;2.90;;;0.50;;
9364;SDS011;4722;49.340;9.800;2022-11-20T15:42:54;2.53;;;0.50;;
9364;SDS011;4722;49.340;9.800;2022-11-20T15:46:30;0.88;;;0.65;;
9364;SDS011;4722;49.340;9.800;2022-11-20T15:48:27;0.65;;;0.50;;
9364;SDS011;4722;49.340;9.800;2022-11-20T15:50:59;0.82;;;0.40;;
9364;SDS011;4722;49.340;9.800;2022-11-20T15:53:26;1.85;;;0.85;;
9364;SDS011;4722;49.340;9.800;2022-11-20T15:55:53;1.90;;;0.70;;
9364;SDS011;4722;49.340;9.800;2022-11-20T15:58:19;1.55;;;0.93;;
9364;SDS011;4722;49.340;9.800;2022-11-20T16:00:45;0.73;;;0.60;;
9364;SDS011;4722;49.340;9.800;2022-11-20T16:03:12;1.88;;;0.90;;
9364;SDS011;4722;49.340;9.800;2022-11-20T16:05:38;1.83;;;0.73;;
9364;SDS011;4722;49.340;9.800;2022-11-20T16:08:04;3.05;;;0.90;;
9364;SDS011;4722;49.340;9.800;2022-11-20T16:10:30;1.33;;;0.82;;
9364;SDS011;4722;49.340;9.800;2022-11-20T16:12:56;4.80;;;1.20;;
9364;SDS011;4722;49.340;9.800;2022-11-20T16:15:40;0.80;;;0.60;;
9364;SDS011;4722;49.340;9.800;2022-11-20T16:18:10;5.60;;;0.90;;
9364;SDS011;4722;49.340;9.800;2022-11-20T16:20:36;1.27;;;0.68;;
9364;SDS011;4722;49.340;9.800;2022-11-20T16:23:02;1.17;;;0.60;;
9364;SDS011;4722;49.340;9.800;2022-11-20T16:25:29;8.63;;;0.98;;
9364;SDS011;4722;49.340;9.800;2022-11-20T16:27:54;2.15;;;0.98;;